sensor_id;sensor_type;location;lat;lon;timestamp;P1;durP1;ratioP1;P2;durP2;ratioP2
67715;SDS011;54508;43.238;25.306;2023-02-02T00:01:38;17.58;;;13.00;;
67715;SDS011;54508;43.238;25.306;2023-02-02T00:04:03;17.48;;;12.43;;
67715;SDS011;54508;43.238;25.306;2023-02-02T00:06:29;17.27;;;12.75;;
67715;SDS011;54508;43.238;25.306;2023-02-02T00:08:56;19.40;;;12.88;;
67715;SDS011;54508;43.238;25.306;2023-02-02T00:11:23;19.03;;;11.63;;
67715;SDS011;54508;43.238;25.306;2023-02-02T00:13:49;17.35;;;11.75;;
67715;SDS011;54508;43.238;25.306;2023-02-02T00:18:56;16.98;;;11.25;;
67715;SDS011;54508;43.238;25.306;2023-02-02T00:21:26;16.20;;;11.02;;
67715;SDS011;54508;43.238;25.306;2023-02-02T00:23:53;17.42;;;10.77;;
67715;SDS011;54508;43.238;25.306;2023-02-02T00:26:19;15.27;;;9.93;;
67715;SDS011;54508;43.238;25.306;2023-02-02T00:28:45;14.13;;;10.15;;
67715;SDS011;54508;43.238;25.306;2023-02-02T00:31:11;14.00;;;9.32;;
67715;SDS011;54508;43.238;25.306;2023-02-02T00:33:36;13.90;;;9.07;;
67715;SDS011;54508;43.238;25.306;2023-02-02T00:36:02;13.10;;;8.77;;
67715;SDS011;54508;43.238;25.306;2023-02-02T00:38:29;12.35;;;8.63;;
67715;SDS011;54508;43.238;25.306;2023-02-02T00:40:55;12.68;;;8.52;;
67715;SDS011;54508;43.238;25.306;2023-02-02T00:43:20;14.07;;;8.53;;
67715;SDS011;54508;43.238;25.306;2023-02-02T00:45:46;11.33;;;8.17;;
67715;SDS011;54508;43.238;25.306;2023-02-02T00:48:12;11.98;;;8.23;;
67715;SDS011;54508;43.238;25.306;2023-02-02T00:50:38;11.47;;;7.97;;
67715;SDS011;54508;43.238;25.306;2023-02-02T00:53:03;10.43;;;7.07;;
67715;SDS011;54508;43.238;25.306;2023-02-02T00:55:29;10.57;;;7.15;;
67715;SDS011;54508;43.238;25.306;2023-02-02T00:57:54;9.60;;;7.00;;
67715;SDS011;54508;43.238;25.306;2023-02-02T01:00:21;11.55;;;7.65;;
67715;SDS011;54508;43.238;25.306;2023-02-02T01:02:51;10.40;;;7.10;;
67715;SDS011;54508;43.238;25.306;2023-02-02T01:05:18;11.52;;;6.95;;
67715;SDS011;54508;43.238;25.306;2023-02-02T01:07:44;9.13;;;6.03;;
67715;SDS011;54508;43.238;25.306;2023-02-02T01:10:10;8.40;;;6.30;;
67715;SDS011;54508;43.238;25.306;2023-02-02T01:12:38;8.43;;;5.60;;
67715;SDS011;54508;43.238;25.306;2023-02-02T01:15:04;7.72;;;5.38;;
67715;SDS011;54508;43.238;25.306;2023-02-02T01:17:30;9.77;;;5.93;;
67715;SDS011;54508;43.238;25.306;2023-02-02T01:19:56;8.27;;;5.50;;
67715;SDS011;54508;43.238;25.306;2023-02-02T01:22:21;7.80;;;5.07;;
67715;SDS011;54508;43.238;25.306;2023-02-02T01:24:47;10.13;;;5.93;;
67715;SDS011;54508;43.238;25.306;2023-02-02T01:27:12;8.20;;;5.53;;
67715;SDS011;54508;43.238;25.306;2023-02-02T01:29:37;7.47;;;5.33;;
67715;SDS011;54508;43.238;25.306;2023-02-02T01:32:03;5.40;;;4.47;;
67715;SDS011;54508;43.238;25.306;2023-02-02T01:34:29;8.20;;;4.53;;
67715;SDS011;54508;43.238;25.306;2023-02-02T01:36:54;6.77;;;4.67;;
67715;SDS011;54508;43.238;25.306;2023-02-02T01:39:20;7.43;;;4.73;;
67715;SDS011;54508;43.238;25.306;2023-02-02T01:41:45;8.43;;;4.40;;
67715;SDS011;54508;43.238;25.306;2023-02-02T01:47:13;5.60;;;4.03;;
67715;SDS011;54508;43.238;25.306;2023-02-02T01:49:39;6.82;;;4.05;;
67715;SDS011;54508;43.238;25.306;2023-02-02T01:52:05;5.75;;;4.22;;
67715;SDS011;54508;43.238;25.306;2023-02-02T01:54:37;5.82;;;3.50;;
67715;SDS011;54508;43.238;25.306;2023-02-02T01:57:11;5.55;;;4.35;;
67715;SDS011;54508;43.238;25.306;2023-02-02T01:59:41;4.97;;;3.53;;
67715;SDS011;54508;43.238;25.306;2023-02-02T02:02:08;5.40;;;3.60;;
67715;SDS011;54508;43.238;25.306;2023-02-02T02:04:34;6.03;;;3.95;;
67715;SDS011;54508;43.238;25.306;2023-02-02T02:07:00;4.37;;;3.30;;
67715;SDS011;54508;43.238;25.306;2023-02-02T02:09:27;5.15;;;3.38;;
67715;SDS011;54508;43.238;25.306;2023-02-02T02:11:53;4.47;;;3.37;;
67715;SDS011;54508;43.238;25.306;2023-02-02T02:14:18;5.20;;;3.58;;
67715;SDS011;54508;43.238;25.306;2023-02-02T02:17:09;3.75;;;2.83;;
67715;SDS011;54508;43.238;25.306;2023-02-02T02:23:03;3.47;;;2.67;;
67715;SDS011;54508;43.238;25.306;2023-02-02T02:29:24;3.80;;;2.80;;
67715;SDS011;54508;43.238;25.306;2023-02-02T02:43:22;2.67;;;2.20;;
67715;SDS011;54508;43.238;25.306;2023-02-02T02:45:51;3.15;;;2.85;;
67715;SDS011;54508;43.238;25.306;2023-02-02T02:48:17;3.60;;;2.30;;
67715;SDS011;54508;43.238;25.306;2023-02-02T02:50:42;3.00;;;2.50;;
67715;SDS011;54508;43.238;25.306;2023-02-02T02:53:09;3.60;;;2.22;;
67715;SDS011;54508;43.238;25.306;2023-02-02T02:55:44;3.00;;;2.10;;
67715;SDS011;54508;43.238;25.306;2023-02-02T02:58:15;3.42;;;2.33;;
67715;SDS011;54508;43.238;25.306;2023-02-02T03:06:22;4.60;;;2.10;;
67715;SDS011;54508;43.238;25.306;2023-02-02T03:08:52;3.08;;;1.98;;
67715;SDS011;54508;43.238;25.306;2023-02-02T03:11:21;3.33;;;2.28;;
67715;SDS011;54508;43.238;25.306;2023-02-02T03:13:47;3.20;;;2.20;;
67715;SDS011;54508;43.238;25.306;2023-02-02T03:16:13;3.08;;;1.98;;
67715;SDS011;54508;43.238;25.306;2023-02-02T03:18:39;3.85;;;2.10;;
67715;SDS011;54508;43.238;25.306;2023-02-02T03:21:05;2.90;;;2.07;;
67715;SDS011;54508;43.238;25.306;2023-02-02T03:23:30;2.83;;;1.83;;
67715;SDS011;54508;43.238;25.306;2023-02-02T03:25:56;3.47;;;1.80;;
67715;SDS011;54508;43.238;25.306;2023-02-02T03:28:22;2.43;;;1.80;;
67715;SDS011;54508;43.238;25.306;2023-02-02T03:30:47;2.65;;;2.00;;
67715;SDS011;54508;43.238;25.306;2023-02-02T03:33:13;2.55;;;1.80;;
67715;SDS011;54508;43.238;25.306;2023-02-02T03:35:40;3.37;;;1.60;;
67715;SDS011;54508;43.238;25.306;2023-02-02T03:38:05;2.70;;;1.67;;
67715;SDS011;54508;43.238;25.306;2023-02-02T03:40:31;2.27;;;1.77;;
67715;SDS011;54508;43.238;25.306;2023-02-02T03:42:56;3.40;;;1.70;;
67715;SDS011;54508;43.238;25.306;2023-02-02T03:45:22;2.40;;;1.93;;
67715;SDS011;54508;43.238;25.306;2023-02-02T03:47:49;3.35;;;1.92;;
67715;SDS011;54508;43.238;25.306;2023-02-02T03:50:15;2.80;;;1.80;;
67715;SDS011;54508;43.238;25.306;2023-02-02T03:52:41;2.20;;;1.77;;
67715;SDS011;54508;43.238;25.306;2023-02-02T03:55:07;2.47;;;1.77;;
67715;SDS011;54508;43.238;25.306;2023-02-02T03:57:32;2.22;;;1.73;;
67715;SDS011;54508;43.238;25.306;2023-02-02T03:59:58;2.67;;;1.80;;
67715;SDS011;54508;43.238;25.306;2023-02-02T04:02:23;2.10;;;1.60;;
67715;SDS011;54508;43.238;25.306;2023-02-02T04:04:49;2.77;;;1.90;;
67715;SDS011;54508;43.238;25.306;2023-02-02T04:07:14;2.65;;;1.63;;
67715;SDS011;54508;43.238;25.306;2023-02-02T04:09:40;2.40;;;1.60;;
67715;SDS011;54508;43.238;25.306;2023-02-02T04:12:05;2.57;;;1.70;;
67715;SDS011;54508;43.238;25.306;2023-02-02T04:14:31;2.80;;;1.50;;
67715;SDS011;54508;43.238;25.306;2023-02-02T04:16:56;2.97;;;1.67;;
67715;SDS011;54508;43.238;25.306;2023-02-02T04:19:22;4.47;;;1.70;;
67715;SDS011;54508;43.238;25.306;2023-02-02T04:21:47;2.10;;;1.57;;
67715;SDS011;54508;43.238;25.306;2023-02-02T04:24:13;2.13;;;1.60;;
67715;SDS011;54508;43.238;25.306;2023-02-02T04:26:39;2.53;;;1.30;;
67715;SDS011;54508;43.238;25.306;2023-02-02T04:29:05;2.90;;;1.90;;
67715;SDS011;54508;43.238;25.306;2023-02-02T04:31:30;2.17;;;1.50;;
67715;SDS011;54508;43.238;25.306;2023-02-02T04:33:56;2.50;;;1.60;;
67715;SDS011;54508;43.238;25.306;2023-02-02T04:36:21;4.27;;;1.73;;
67715;SDS011;54508;43.238;25.306;2023-02-02T04:38:50;3.10;;;1.70;;
67715;SDS011;54508;43.238;25.306;2023-02-02T04:41:17;2.10;;;1.70;;
67715;SDS011;54508;43.238;25.306;2023-02-02T04:43:45;2.65;;;1.60;;
67715;SDS011;54508;43.238;25.306;2023-02-02T04:46:11;2.93;;;1.50;;
67715;SDS011;54508;43.238;25.306;2023-02-02T04:48:37;2.17;;;1.50;;
67715;SDS011;54508;43.238;25.306;2023-02-02T04:51:05;2.08;;;1.50;;
67715;SDS011;54508;43.238;25.306;2023-02-02T04:53:32;2.05;;;1.60;;
67715;SDS011;54508;43.238;25.306;2023-02-02T04:55:57;4.30;;;1.80;;
67715;SDS011;54508;43.238;25.306;2023-02-02T04:58:32;3.53;;;1.38;;
67715;SDS011;54508;43.238;25.306;2023-02-02T05:00:57;2.97;;;1.40;;
67715;SDS011;54508;43.238;25.306;2023-02-02T05:03:23;2.03;;;1.40;;
67715;SDS011;54508;43.238;25.306;2023-02-02T05:05:48;2.65;;;1.60;;
67715;SDS011;54508;43.238;25.306;2023-02-02T05:08:14;1.63;;;1.47;;
67715;SDS011;54508;43.238;25.306;2023-02-02T05:10:39;2.63;;;1.57;;
67715;SDS011;54508;43.238;25.306;2023-02-02T05:13:06;3.15;;;1.60;;
67715;SDS011;54508;43.238;25.306;2023-02-02T05:15:32;2.70;;;1.25;;
67715;SDS011;54508;43.238;25.306;2023-02-02T05:17:57;2.47;;;1.63;;
67715;SDS011;54508;43.238;25.306;2023-02-02T05:20:23;2.38;;;1.50;;
67715;SDS011;54508;43.238;25.306;2023-02-02T05:22:48;2.80;;;1.30;;
67715;SDS011;54508;43.238;25.306;2023-02-02T05:25:14;1.60;;;1.10;;
67715;SDS011;54508;43.238;25.306;2023-02-02T05:27:41;1.88;;;1.52;;
67715;SDS011;54508;43.238;25.306;2023-02-02T05:30:09;2.75;;;1.40;;
67715;SDS011;54508;43.238;25.306;2023-02-02T05:32:38;2.05;;;1.40;;
67715;SDS011;54508;43.238;25.306;2023-02-02T05:35:04;2.35;;;1.48;;
67715;SDS011;54508;43.238;25.306;2023-02-02T05:37:30;2.33;;;1.23;;
67715;SDS011;54508;43.238;25.306;2023-02-02T05:39:55;2.60;;;1.60;;
67715;SDS011;54508;43.238;25.306;2023-02-02T05:42:21;2.63;;;1.40;;
67715;SDS011;54508;43.238;25.306;2023-02-02T05:44:46;2.33;;;1.60;;
67715;SDS011;54508;43.238;25.306;2023-02-02T05:47:12;1.87;;;1.30;;
67715;SDS011;54508;43.238;25.306;2023-02-02T05:49:37;1.43;;;1.30;;
67715;SDS011;54508;43.238;25.306;2023-02-02T05:52:03;2.07;;;1.40;;
67715;SDS011;54508;43.238;25.306;2023-02-02T05:54:29;2.45;;;1.40;;
67715;SDS011;54508;43.238;25.306;2023-02-02T05:56:54;1.90;;;1.30;;
67715;SDS011;54508;43.238;25.306;2023-02-02T05:59:20;2.67;;;1.67;;
67715;SDS011;54508;43.238;25.306;2023-02-02T06:01:46;2.13;;;1.63;;
67715;SDS011;54508;43.238;25.306;2023-02-02T06:04:12;2.75;;;1.50;;
67715;SDS011;54508;43.238;25.306;2023-02-02T06:06:38;3.17;;;1.67;;
67715;SDS011;54508;43.238;25.306;2023-02-02T06:09:04;1.98;;;1.45;;
67715;SDS011;54508;43.238;25.306;2023-02-02T06:11:31;2.20;;;1.40;;
67715;SDS011;54508;43.238;25.306;2023-02-02T06:13:57;2.00;;;1.40;;
67715;SDS011;54508;43.238;25.306;2023-02-02T06:16:23;8.37;;;1.80;;
67715;SDS011;54508;43.238;25.306;2023-02-02T06:18:48;6.20;;;2.08;;
67715;SDS011;54508;43.238;25.306;2023-02-02T06:21:14;6.00;;;1.90;;
67715;SDS011;54508;43.238;25.306;2023-02-02T06:23:40;7.70;;;1.95;;
67715;SDS011;54508;43.238;25.306;2023-02-02T06:26:12;6.53;;;2.00;;
67715;SDS011;54508;43.238;25.306;2023-02-02T06:28:38;3.00;;;1.80;;
67715;SDS011;54508;43.238;25.306;2023-02-02T06:31:04;4.17;;;1.80;;
67715;SDS011;54508;43.238;25.306;2023-02-02T06:33:34;6.85;;;2.05;;
67715;SDS011;54508;43.238;25.306;2023-02-02T06:36:03;3.00;;;1.67;;
67715;SDS011;54508;43.238;25.306;2023-02-02T06:38:30;3.88;;;1.50;;
67715;SDS011;54508;43.238;25.306;2023-02-02T06:40:58;2.17;;;1.83;;
67715;SDS011;54508;43.238;25.306;2023-02-02T06:43:24;4.28;;;1.70;;
67715;SDS011;54508;43.238;25.306;2023-02-02T06:45:49;4.00;;;1.80;;
67715;SDS011;54508;43.238;25.306;2023-02-02T06:48:15;2.97;;;1.77;;
67715;SDS011;54508;43.238;25.306;2023-02-02T06:50:40;3.10;;;1.60;;
67715;SDS011;54508;43.238;25.306;2023-02-02T06:53:06;5.40;;;2.20;;
67715;SDS011;54508;43.238;25.306;2023-02-02T06:55:31;3.90;;;1.70;;
67715;SDS011;54508;43.238;25.306;2023-02-02T06:57:57;5.20;;;2.20;;
67715;SDS011;54508;43.238;25.306;2023-02-02T07:00:23;3.92;;;1.90;;
67715;SDS011;54508;43.238;25.306;2023-02-02T07:02:49;4.30;;;1.80;;
67715;SDS011;54508;43.238;25.306;2023-02-02T07:05:15;8.27;;;2.07;;
67715;SDS011;54508;43.238;25.306;2023-02-02T07:07:43;5.97;;;2.17;;
67715;SDS011;54508;43.238;25.306;2023-02-02T07:10:09;15.52;;;2.40;;
67715;SDS011;54508;43.238;25.306;2023-02-02T07:12:35;9.93;;;2.22;;
67715;SDS011;54508;43.238;25.306;2023-02-02T07:15:01;4.50;;;2.03;;
67715;SDS011;54508;43.238;25.306;2023-02-02T07:17:27;7.47;;;2.10;;
67715;SDS011;54508;43.238;25.306;2023-02-02T07:19:53;6.47;;;2.33;;
67715;SDS011;54508;43.238;25.306;2023-02-02T07:22:18;4.05;;;1.80;;
67715;SDS011;54508;43.238;25.306;2023-02-02T07:24:44;4.57;;;2.00;;
67715;SDS011;54508;43.238;25.306;2023-02-02T07:27:09;10.20;;;2.10;;
67715;SDS011;54508;43.238;25.306;2023-02-02T07:29:34;8.53;;;2.03;;
67715;SDS011;54508;43.238;25.306;2023-02-02T07:32:00;11.85;;;2.17;;
67715;SDS011;54508;43.238;25.306;2023-02-02T07:34:25;6.00;;;2.13;;
67715;SDS011;54508;43.238;25.306;2023-02-02T07:36:51;5.60;;;2.70;;
67715;SDS011;54508;43.238;25.306;2023-02-02T07:39:16;5.17;;;1.80;;
67715;SDS011;54508;43.238;25.306;2023-02-02T07:41:42;4.85;;;2.25;;
67715;SDS011;54508;43.238;25.306;2023-02-02T07:44:14;5.15;;;2.17;;
67715;SDS011;54508;43.238;25.306;2023-02-02T07:46:43;6.10;;;2.38;;
67715;SDS011;54508;43.238;25.306;2023-02-02T07:49:11;4.15;;;2.10;;
67715;SDS011;54508;43.238;25.306;2023-02-02T07:51:38;6.20;;;2.13;;
67715;SDS011;54508;43.238;25.306;2023-02-02T07:54:04;6.35;;;1.60;;
67715;SDS011;54508;43.238;25.306;2023-02-02T07:56:29;5.77;;;2.10;;
67715;SDS011;54508;43.238;25.306;2023-02-02T07:58:55;3.90;;;2.00;;
67715;SDS011;54508;43.238;25.306;2023-02-02T08:01:21;4.13;;;1.83;;
67715;SDS011;54508;43.238;25.306;2023-02-02T08:03:50;4.47;;;2.13;;
67715;SDS011;54508;43.238;25.306;2023-02-02T08:06:26;4.57;;;1.90;;
67715;SDS011;54508;43.238;25.306;2023-02-02T08:08:54;4.05;;;1.80;;
67715;SDS011;54508;43.238;25.306;2023-02-02T08:11:20;4.43;;;2.10;;
67715;SDS011;54508;43.238;25.306;2023-02-02T08:13:53;4.05;;;1.85;;
67715;SDS011;54508;43.238;25.306;2023-02-02T08:16:21;7.53;;;2.33;;
67715;SDS011;54508;43.238;25.306;2023-02-02T08:18:47;6.22;;;2.20;;
67715;SDS011;54508;43.238;25.306;2023-02-02T08:21:13;8.37;;;2.40;;
67715;SDS011;54508;43.238;25.306;2023-02-02T08:23:40;9.88;;;2.33;;
67715;SDS011;54508;43.238;25.306;2023-02-02T08:26:10;9.98;;;2.50;;
67715;SDS011;54508;43.238;25.306;2023-02-02T08:28:38;8.55;;;2.53;;
67715;SDS011;54508;43.238;25.306;2023-02-02T08:31:08;5.95;;;2.22;;
67715;SDS011;54508;43.238;25.306;2023-02-02T08:33:36;5.13;;;2.10;;
67715;SDS011;54508;43.238;25.306;2023-02-02T08:36:02;5.20;;;1.90;;
67715;SDS011;54508;43.238;25.306;2023-02-02T08:38:28;6.47;;;2.50;;
67715;SDS011;54508;43.238;25.306;2023-02-02T08:40:53;5.93;;;2.37;;
67715;SDS011;54508;43.238;25.306;2023-02-02T08:43:19;6.38;;;1.92;;
67715;SDS011;54508;43.238;25.306;2023-02-02T08:45:44;8.48;;;2.45;;
67715;SDS011;54508;43.238;25.306;2023-02-02T08:48:10;6.07;;;2.10;;
67715;SDS011;54508;43.238;25.306;2023-02-02T08:50:36;3.67;;;2.00;;
67715;SDS011;54508;43.238;25.306;2023-02-02T08:53:02;4.97;;;2.20;;
67715;SDS011;54508;43.238;25.306;2023-02-02T08:55:27;12.15;;;2.40;;
67715;SDS011;54508;43.238;25.306;2023-02-02T08:57:53;10.63;;;2.00;;
67715;SDS011;54508;43.238;25.306;2023-02-02T09:00:19;6.47;;;2.40;;
67715;SDS011;54508;43.238;25.306;2023-02-02T09:02:45;7.18;;;2.00;;
67715;SDS011;54508;43.238;25.306;2023-02-02T09:05:14;8.93;;;2.53;;
67715;SDS011;54508;43.238;25.306;2023-02-02T09:07:40;6.87;;;2.40;;
67715;SDS011;54508;43.238;25.306;2023-02-02T09:10:05;4.87;;;2.43;;
67715;SDS011;54508;43.238;25.306;2023-02-02T09:12:31;6.90;;;2.00;;
67715;SDS011;54508;43.238;25.306;2023-02-02T09:14:56;6.90;;;2.40;;
67715;SDS011;54508;43.238;25.306;2023-02-02T09:17:22;6.17;;;2.40;;
67715;SDS011;54508;43.238;25.306;2023-02-02T09:19:48;4.75;;;2.67;;
67715;SDS011;54508;43.238;25.306;2023-02-02T09:22:14;4.83;;;2.17;;
67715;SDS011;54508;43.238;25.306;2023-02-02T09:24:39;10.43;;;2.50;;
67715;SDS011;54508;43.238;25.306;2023-02-02T09:27:04;5.43;;;2.00;;
67715;SDS011;54508;43.238;25.306;2023-02-02T09:29:30;5.03;;;2.53;;
67715;SDS011;54508;43.238;25.306;2023-02-02T09:31:55;8.13;;;2.00;;
67715;SDS011;54508;43.238;25.306;2023-02-02T09:34:21;5.43;;;2.10;;
67715;SDS011;54508;43.238;25.306;2023-02-02T09:36:46;6.93;;;1.93;;
67715;SDS011;54508;43.238;25.306;2023-02-02T09:39:12;5.50;;;1.93;;
67715;SDS011;54508;43.238;25.306;2023-02-02T09:54:51;8.13;;;2.60;;
67715;SDS011;54508;43.238;25.306;2023-02-02T09:57:22;8.70;;;2.28;;
67715;SDS011;54508;43.238;25.306;2023-02-02T09:59:50;5.20;;;2.50;;
67715;SDS011;54508;43.238;25.306;2023-02-02T10:02:17;12.10;;;2.70;;
67715;SDS011;54508;43.238;25.306;2023-02-02T10:04:47;9.90;;;2.90;;
67715;SDS011;54508;43.238;25.306;2023-02-02T10:07:16;14.23;;;2.13;;
67715;SDS011;54508;43.238;25.306;2023-02-02T10:13:32;7.60;;;2.50;;
67715;SDS011;54508;43.238;25.306;2023-02-02T10:23:40;10.75;;;2.65;;
67715;SDS011;54508;43.238;25.306;2023-02-02T10:29:11;14.75;;;2.83;;
67715;SDS011;54508;43.238;25.306;2023-02-02T10:42:41;7.90;;;4.22;;
67715;SDS011;54508;43.238;25.306;2023-02-02T10:45:44;7.93;;;4.28;;
67715;SDS011;54508;43.238;25.306;2023-02-02T10:48:13;10.57;;;3.47;;
67715;SDS011;54508;43.238;25.306;2023-02-02T10:50:42;12.68;;;3.47;;
67715;SDS011;54508;43.238;25.306;2023-02-02T10:53:13;7.95;;;3.17;;
67715;SDS011;54508;43.238;25.306;2023-02-02T10:55:42;9.85;;;2.95;;
67715;SDS011;54508;43.238;25.306;2023-02-02T10:58:38;5.40;;;2.90;;
67715;SDS011;54508;43.238;25.306;2023-02-02T11:01:06;6.75;;;2.80;;
67715;SDS011;54508;43.238;25.306;2023-02-02T11:03:35;5.82;;;2.70;;
67715;SDS011;54508;43.238;25.306;2023-02-02T11:06:01;7.15;;;3.00;;
67715;SDS011;54508;43.238;25.306;2023-02-02T11:08:50;6.53;;;2.45;;
67715;SDS011;54508;43.238;25.306;2023-02-02T11:11:30;2.85;;;2.45;;
67715;SDS011;54508;43.238;25.306;2023-02-02T11:14:03;5.53;;;2.95;;
67715;SDS011;54508;43.238;25.306;2023-02-02T11:16:42;7.28;;;2.72;;
67715;SDS011;54508;43.238;25.306;2023-02-02T11:19:28;5.68;;;2.70;;
67715;SDS011;54508;43.238;25.306;2023-02-02T11:21:55;9.73;;;2.88;;
67715;SDS011;54508;43.238;25.306;2023-02-02T11:24:29;11.15;;;2.95;;
67715;SDS011;54508;43.238;25.306;2023-02-02T11:27:11;5.85;;;2.92;;
67715;SDS011;54508;43.238;25.306;2023-02-02T11:32:24;7.27;;;2.43;;
67715;SDS011;54508;43.238;25.306;2023-02-02T11:37:31;9.82;;;2.75;;
67715;SDS011;54508;43.238;25.306;2023-02-02T11:42:48;6.50;;;2.42;;
67715;SDS011;54508;43.238;25.306;2023-02-02T11:45:18;3.38;;;2.30;;
67715;SDS011;54508;43.238;25.306;2023-02-02T11:47:51;5.07;;;2.55;;
67715;SDS011;54508;43.238;25.306;2023-02-02T11:50:22;6.33;;;2.13;;
67715;SDS011;54508;43.238;25.306;2023-02-02T11:52:50;3.58;;;2.22;;
67715;SDS011;54508;43.238;25.306;2023-02-02T11:55:16;3.77;;;2.30;;
67715;SDS011;54508;43.238;25.306;2023-02-02T12:00:47;3.70;;;2.35;;
67715;SDS011;54508;43.238;25.306;2023-02-02T12:03:23;5.75;;;2.78;;
67715;SDS011;54508;43.238;25.306;2023-02-02T12:05:52;4.43;;;2.50;;
67715;SDS011;54508;43.238;25.306;2023-02-02T12:08:18;3.20;;;2.00;;
67715;SDS011;54508;43.238;25.306;2023-02-02T12:10:55;5.32;;;2.30;;
67715;SDS011;54508;43.238;25.306;2023-02-02T12:13:34;7.70;;;3.03;;
67715;SDS011;54508;43.238;25.306;2023-02-02T12:22:09;7.72;;;2.50;;
67715;SDS011;54508;43.238;25.306;2023-02-02T12:27:19;7.30;;;2.05;;
67715;SDS011;54508;43.238;25.306;2023-02-02T12:30:02;6.20;;;2.30;;
67715;SDS011;54508;43.238;25.306;2023-02-02T12:38:02;4.45;;;2.28;;
67715;SDS011;54508;43.238;25.306;2023-02-02T12:43:59;4.38;;;2.53;;
67715;SDS011;54508;43.238;25.306;2023-02-02T12:52:10;6.75;;;2.40;;
67715;SDS011;54508;43.238;25.306;2023-02-02T12:54:58;7.18;;;2.45;;
67715;SDS011;54508;43.238;25.306;2023-02-02T13:05:38;14.70;;;2.80;;
67715;SDS011;54508;43.238;25.306;2023-02-02T13:08:35;11.13;;;2.83;;
67715;SDS011;54508;43.238;25.306;2023-02-02T13:11:11;10.68;;;3.28;;
67715;SDS011;54508;43.238;25.306;2023-02-02T13:13:56;13.07;;;3.40;;
67715;SDS011;54508;43.238;25.306;2023-02-02T13:16:30;9.52;;;3.40;;
67715;SDS011;54508;43.238;25.306;2023-02-02T13:18:59;9.57;;;2.92;;
67715;SDS011;54508;43.238;25.306;2023-02-02T13:21:26;10.68;;;3.08;;
67715;SDS011;54508;43.238;25.306;2023-02-02T13:23:56;10.32;;;3.05;;
67715;SDS011;54508;43.238;25.306;2023-02-02T13:26:26;6.85;;;3.10;;
67715;SDS011;54508;43.238;25.306;2023-02-02T13:34:16;4.97;;;2.67;;
67715;SDS011;54508;43.238;25.306;2023-02-02T13:36:53;8.65;;;2.40;;
67715;SDS011;54508;43.238;25.306;2023-02-02T13:39:21;6.53;;;2.58;;
67715;SDS011;54508;43.238;25.306;2023-02-02T13:41:52;9.13;;;2.45;;
67715;SDS011;54508;43.238;25.306;2023-02-02T13:44:23;9.52;;;2.35;;
67715;SDS011;54508;43.238;25.306;2023-02-02T13:46:59;4.47;;;2.10;;
67715;SDS011;54508;43.238;25.306;2023-02-02T13:49:28;3.25;;;2.17;;
67715;SDS011;54508;43.238;25.306;2023-02-02T14:03:49;3.45;;;2.13;;
67715;SDS011;54508;43.238;25.306;2023-02-02T14:06:12;3.33;;;2.07;;
67715;SDS011;54508;43.238;25.306;2023-02-02T14:08:50;5.75;;;2.20;;
67715;SDS011;54508;43.238;25.306;2023-02-02T14:11:20;7.95;;;1.70;;
67715;SDS011;54508;43.238;25.306;2023-02-02T14:13:47;16.50;;;2.22;;
67715;SDS011;54508;43.238;25.306;2023-02-02T14:18:59;8.93;;;2.50;;
67715;SDS011;54508;43.238;25.306;2023-02-02T14:34:38;2.90;;;1.77;;
67715;SDS011;54508;43.238;25.306;2023-02-02T14:39:36;2.80;;;1.60;;
67715;SDS011;54508;43.238;25.306;2023-02-02T14:42:58;2.73;;;1.60;;
67715;SDS011;54508;43.238;25.306;2023-02-02T14:48:17;7.25;;;5.13;;
67715;SDS011;54508;43.238;25.306;2023-02-02T14:53:24;5.97;;;2.90;;
67715;SDS011;54508;43.238;25.306;2023-02-02T15:01:04;9.43;;;2.53;;
67715;SDS011;54508;43.238;25.306;2023-02-02T15:14:22;4.40;;;1.60;;
67715;SDS011;54508;43.238;25.306;2023-02-02T15:16:50;2.63;;;1.98;;
67715;SDS011;54508;43.238;25.306;2023-02-02T15:19:21;2.38;;;1.42;;
67715;SDS011;54508;43.238;25.306;2023-02-02T15:21:55;3.40;;;1.80;;
67715;SDS011;54508;43.238;25.306;2023-02-02T15:24:25;3.55;;;1.58;;
67715;SDS011;54508;43.238;25.306;2023-02-02T15:26:51;6.05;;;2.03;;
67715;SDS011;54508;43.238;25.306;2023-02-02T15:29:31;7.25;;;1.88;;
67715;SDS011;54508;43.238;25.306;2023-02-02T15:32:00;2.83;;;1.48;;
67715;SDS011;54508;43.238;25.306;2023-02-02T15:34:41;2.95;;;1.50;;
67715;SDS011;54508;43.238;25.306;2023-02-02T15:37:21;9.13;;;1.98;;
67715;SDS011;54508;43.238;25.306;2023-02-02T15:39:51;5.78;;;2.60;;
67715;SDS011;54508;43.238;25.306;2023-02-02T15:42:21;3.83;;;1.70;;
67715;SDS011;54508;43.238;25.306;2023-02-02T15:47:52;8.40;;;2.70;;
67715;SDS011;54508;43.238;25.306;2023-02-02T15:50:19;3.65;;;2.10;;
67715;SDS011;54508;43.238;25.306;2023-02-02T15:52:49;7.18;;;2.30;;
67715;SDS011;54508;43.238;25.306;2023-02-02T15:55:19;7.45;;;2.40;;
67715;SDS011;54508;43.238;25.306;2023-02-02T15:57:46;3.92;;;2.22;;
67715;SDS011;54508;43.238;25.306;2023-02-02T16:05:38;4.85;;;2.22;;
67715;SDS011;54508;43.238;25.306;2023-02-02T16:08:08;2.85;;;2.15;;
67715;SDS011;54508;43.238;25.306;2023-02-02T16:10:44;5.95;;;2.53;;
67715;SDS011;54508;43.238;25.306;2023-02-02T16:13:31;2.97;;;2.00;;
67715;SDS011;54508;43.238;25.306;2023-02-02T16:16:02;2.97;;;2.17;;
67715;SDS011;54508;43.238;25.306;2023-02-02T16:18:30;4.80;;;1.92;;
67715;SDS011;54508;43.238;25.306;2023-02-02T16:20:57;2.60;;;2.00;;
67715;SDS011;54508;43.238;25.306;2023-02-02T16:23:32;4.28;;;2.00;;
67715;SDS011;54508;43.238;25.306;2023-02-02T16:25:59;4.43;;;2.38;;
67715;SDS011;54508;43.238;25.306;2023-02-02T16:28:27;3.70;;;1.65;;
67715;SDS011;54508;43.238;25.306;2023-02-02T16:30:53;3.13;;;1.77;;
67715;SDS011;54508;43.238;25.306;2023-02-02T16:33:29;2.00;;;1.80;;
67715;SDS011;54508;43.238;25.306;2023-02-02T16:36:01;1.38;;;1.10;;
67715;SDS011;54508;43.238;25.306;2023-02-02T16:38:31;2.70;;;1.55;;
67715;SDS011;54508;43.238;25.306;2023-02-02T16:43:32;2.45;;;1.83;;
67715;SDS011;54508;43.238;25.306;2023-02-02T16:46:00;2.00;;;1.60;;
67715;SDS011;54508;43.238;25.306;2023-02-02T16:53:41;1.92;;;1.50;;
67715;SDS011;54508;43.238;25.306;2023-02-02T16:56:10;3.35;;;1.60;;
67715;SDS011;54508;43.238;25.306;2023-02-02T16:58:46;2.40;;;1.48;;
67715;SDS011;54508;43.238;25.306;2023-02-02T17:01:12;3.00;;;1.55;;
67715;SDS011;54508;43.238;25.306;2023-02-02T17:03:39;3.03;;;1.80;;
67715;SDS011;54508;43.238;25.306;2023-02-02T17:06:09;3.07;;;1.70;;
67715;SDS011;54508;43.238;25.306;2023-02-02T17:08:35;2.63;;;1.50;;
67715;SDS011;54508;43.238;25.306;2023-02-02T17:13:37;3.90;;;1.23;;
67715;SDS011;54508;43.238;25.306;2023-02-02T17:16:08;5.63;;;1.63;;
67715;SDS011;54508;43.238;25.306;2023-02-02T17:18:35;2.95;;;1.83;;
67715;SDS011;54508;43.238;25.306;2023-02-02T17:21:01;2.43;;;1.70;;
67715;SDS011;54508;43.238;25.306;2023-02-02T17:23:31;2.65;;;1.75;;
67715;SDS011;54508;43.238;25.306;2023-02-02T17:26:00;2.50;;;1.60;;
67715;SDS011;54508;43.238;25.306;2023-02-02T17:28:26;2.72;;;1.60;;
67715;SDS011;54508;43.238;25.306;2023-02-02T17:30:57;2.45;;;1.77;;
67715;SDS011;54508;43.238;25.306;2023-02-02T17:33:27;2.65;;;1.85;;
67715;SDS011;54508;43.238;25.306;2023-02-02T17:35:52;2.40;;;1.75;;
67715;SDS011;54508;43.238;25.306;2023-02-02T17:38:18;2.40;;;1.70;;
67715;SDS011;54508;43.238;25.306;2023-02-02T17:40:45;1.63;;;1.48;;
67715;SDS011;54508;43.238;25.306;2023-02-02T17:43:11;2.05;;;1.40;;
67715;SDS011;54508;43.238;25.306;2023-02-02T17:45:37;2.10;;;1.70;;
67715;SDS011;54508;43.238;25.306;2023-02-02T17:48:03;2.92;;;1.80;;